sensor_id;sensor_type;location;lat;lon;timestamp;P1;durP1;ratioP1;P2;durP2;ratioP2
36747;SDS011;22716;51.556;5.080;2023-12-29T00:00:08;11.48;;;2.80;;
36747;SDS011;22716;51.556;5.080;2023-12-29T00:02:38;13.07;;;3.15;;
36747;SDS011;22716;51.556;5.080;2023-12-29T00:05:07;11.93;;;2.42;;
36747;SDS011;22716;51.556;5.080;2023-12-29T00:07:36;9.97;;;2.83;;
36747;SDS011;22716;51.556;5.080;2023-12-29T00:10:07;6.10;;;2.47;;
36747;SDS011;22716;51.556;5.080;2023-12-29T00:12:36;3.95;;;2.22;;
36747;SDS011;22716;51.556;5.080;2023-12-29T00:15:05;8.15;;;3.05;;
36747;SDS011;22716;51.556;5.080;2023-12-29T00:17:34;8.93;;;3.53;;
36747;SDS011;22716;51.556;5.080;2023-12-29T00:20:06;12.30;;;2.38;;
36747;SDS011;22716;51.556;5.080;2023-12-29T00:22:35;10.53;;;2.83;;
36747;SDS011;22716;51.556;5.080;2023-12-29T00:25:07;9.65;;;2.67;;
36747;SDS011;22716;51.556;5.080;2023-12-29T00:27:36;8.05;;;1.50;;
36747;SDS011;22716;51.556;5.080;2023-12-29T00:30:05;6.73;;;2.77;;
36747;SDS011;22716;51.556;5.080;2023-12-29T00:32:35;6.53;;;2.15;;
36747;SDS011;22716;51.556;5.080;2023-12-29T00:35:04;5.43;;;1.77;;
36747;SDS011;22716;51.556;5.080;2023-12-29T00:37:33;5.68;;;1.60;;
36747;SDS011;22716;51.556;5.080;2023-12-29T00:40:01;15.25;;;2.35;;
36747;SDS011;22716;51.556;5.080;2023-12-29T00:42:33;9.88;;;2.10;;
36747;SDS011;22716;51.556;5.080;2023-12-29T00:45:02;9.70;;;2.95;;
36747;SDS011;22716;51.556;5.080;2023-12-29T00:47:31;7.55;;;1.90;;
36747;SDS011;22716;51.556;5.080;2023-12-29T00:49:59;14.77;;;2.58;;
36747;SDS011;22716;51.556;5.080;2023-12-29T00:52:28;11.23;;;3.10;;
36747;SDS011;22716;51.556;5.080;2023-12-29T00:54:57;9.00;;;2.42;;
36747;SDS011;22716;51.556;5.080;2023-12-29T00:57:25;13.53;;;2.53;;
36747;SDS011;22716;51.556;5.080;2023-12-29T00:59:56;14.20;;;2.97;;
36747;SDS011;22716;51.556;5.080;2023-12-29T01:02:25;12.63;;;3.25;;
36747;SDS011;22716;51.556;5.080;2023-12-29T01:04:53;11.10;;;2.80;;
36747;SDS011;22716;51.556;5.080;2023-12-29T01:07:22;11.02;;;3.30;;
36747;SDS011;22716;51.556;5.080;2023-12-29T01:09:50;9.98;;;2.75;;
36747;SDS011;22716;51.556;5.080;2023-12-29T01:12:19;10.82;;;2.30;;
36747;SDS011;22716;51.556;5.080;2023-12-29T01:14:48;12.13;;;3.00;;
36747;SDS011;22716;51.556;5.080;2023-12-29T01:17:19;10.82;;;3.25;;
36747;SDS011;22716;51.556;5.080;2023-12-29T01:19:47;12.15;;;2.03;;
36747;SDS011;22716;51.556;5.080;2023-12-29T01:22:16;16.23;;;3.58;;
36747;SDS011;22716;51.556;5.080;2023-12-29T01:24:44;9.15;;;3.22;;
36747;SDS011;22716;51.556;5.080;2023-12-29T01:27:13;9.23;;;1.77;;
36747;SDS011;22716;51.556;5.080;2023-12-29T01:29:41;16.27;;;2.95;;
36747;SDS011;22716;51.556;5.080;2023-12-29T01:32:10;9.85;;;2.40;;
36747;SDS011;22716;51.556;5.080;2023-12-29T01:34:41;12.25;;;3.47;;
36747;SDS011;22716;51.556;5.080;2023-12-29T01:37:09;6.40;;;1.60;;
36747;SDS011;22716;51.556;5.080;2023-12-29T01:39:38;16.58;;;2.08;;
36747;SDS011;22716;51.556;5.080;2023-12-29T01:42:07;9.25;;;2.10;;
36747;SDS011;22716;51.556;5.080;2023-12-29T01:44:36;9.20;;;3.20;;
36747;SDS011;22716;51.556;5.080;2023-12-29T01:47:14;9.93;;;2.67;;
36747;SDS011;22716;51.556;5.080;2023-12-29T01:49:46;9.68;;;2.95;;
36747;SDS011;22716;51.556;5.080;2023-12-29T01:52:16;12.57;;;3.10;;
36747;SDS011;22716;51.556;5.080;2023-12-29T01:54:46;7.78;;;2.03;;
36747;SDS011;22716;51.556;5.080;2023-12-29T01:57:18;11.02;;;3.25;;
36747;SDS011;22716;51.556;5.080;2023-12-29T01:59:48;8.82;;;3.13;;
36747;SDS011;22716;51.556;5.080;2023-12-29T02:02:17;7.95;;;2.85;;
36747;SDS011;22716;51.556;5.080;2023-12-29T02:04:48;9.38;;;1.92;;
36747;SDS011;22716;51.556;5.080;2023-12-29T02:07:17;13.13;;;2.90;;
36747;SDS011;22716;51.556;5.080;2023-12-29T02:09:46;10.98;;;2.45;;
36747;SDS011;22716;51.556;5.080;2023-12-29T02:12:16;8.70;;;2.53;;
36747;SDS011;22716;51.556;5.080;2023-12-29T02:14:47;6.03;;;2.13;;
36747;SDS011;22716;51.556;5.080;2023-12-29T02:17:16;5.82;;;2.10;;
36747;SDS011;22716;51.556;5.080;2023-12-29T02:19:53;16.23;;;3.90;;
36747;SDS011;22716;51.556;5.080;2023-12-29T02:22:23;8.85;;;2.90;;
36747;SDS011;22716;51.556;5.080;2023-12-29T02:24:54;7.68;;;2.05;;
36747;SDS011;22716;51.556;5.080;2023-12-29T02:27:26;9.77;;;2.28;;
36747;SDS011;22716;51.556;5.080;2023-12-29T02:30:06;11.02;;;2.20;;
36747;SDS011;22716;51.556;5.080;2023-12-29T02:32:38;6.50;;;2.75;;
36747;SDS011;22716;51.556;5.080;2023-12-29T02:35:09;7.50;;;1.95;;
36747;SDS011;22716;51.556;5.080;2023-12-29T02:37:45;10.27;;;2.60;;
36747;SDS011;22716;51.556;5.080;2023-12-29T02:40:18;12.07;;;1.90;;
36747;SDS011;22716;51.556;5.080;2023-12-29T02:42:47;9.40;;;2.00;;
36747;SDS011;22716;51.556;5.080;2023-12-29T02:45:17;14.38;;;2.13;;
36747;SDS011;22716;51.556;5.080;2023-12-29T02:47:46;9.60;;;2.47;;
36747;SDS011;22716;51.556;5.080;2023-12-29T02:50:15;14.02;;;3.15;;
36747;SDS011;22716;51.556;5.080;2023-12-29T02:52:44;11.60;;;2.10;;
36747;SDS011;22716;51.556;5.080;2023-12-29T02:55:13;12.50;;;3.25;;
36747;SDS011;22716;51.556;5.080;2023-12-29T02:57:44;9.40;;;2.15;;
36747;SDS011;22716;51.556;5.080;2023-12-29T03:00:13;9.33;;;2.37;;
36747;SDS011;22716;51.556;5.080;2023-12-29T03:02:42;9.15;;;2.03;;
36747;SDS011;22716;51.556;5.080;2023-12-29T03:05:11;9.35;;;3.63;;
36747;SDS011;22716;51.556;5.080;2023-12-29T03:07:40;10.10;;;2.53;;
36747;SDS011;22716;51.556;5.080;2023-12-29T03:10:09;9.93;;;2.65;;
36747;SDS011;22716;51.556;5.080;2023-12-29T03:12:37;10.23;;;2.13;;
36747;SDS011;22716;51.556;5.080;2023-12-29T03:15:09;9.35;;;2.22;;
36747;SDS011;22716;51.556;5.080;2023-12-29T03:17:37;14.00;;;2.42;;
36747;SDS011;22716;51.556;5.080;2023-12-29T03:20:07;13.98;;;2.13;;
36747;SDS011;22716;51.556;5.080;2023-12-29T03:22:36;10.30;;;2.83;;
36747;SDS011;22716;51.556;5.080;2023-12-29T03:25:05;14.25;;;2.95;;
36747;SDS011;22716;51.556;5.080;2023-12-29T03:27:34;12.73;;;3.22;;
36747;SDS011;22716;51.556;5.080;2023-12-29T03:30:03;7.95;;;2.72;;
36747;SDS011;22716;51.556;5.080;2023-12-29T03:32:36;19.13;;;4.35;;
36747;SDS011;22716;51.556;5.080;2023-12-29T03:35:05;9.68;;;2.30;;
36747;SDS011;22716;51.556;5.080;2023-12-29T03:37:34;9.90;;;2.50;;
36747;SDS011;22716;51.556;5.080;2023-12-29T03:40:03;9.63;;;2.50;;
36747;SDS011;22716;51.556;5.080;2023-12-29T03:42:33;11.43;;;2.73;;
36747;SDS011;22716;51.556;5.080;2023-12-29T03:45:01;15.90;;;2.53;;
36747;SDS011;22716;51.556;5.080;2023-12-29T03:47:30;8.18;;;2.70;;
36747;SDS011;22716;51.556;5.080;2023-12-29T03:50:04;12.13;;;2.47;;
36747;SDS011;22716;51.556;5.080;2023-12-29T03:52:33;10.95;;;2.42;;
36747;SDS011;22716;51.556;5.080;2023-12-29T03:55:02;8.07;;;2.28;;
36747;SDS011;22716;51.556;5.080;2023-12-29T03:57:31;7.15;;;2.38;;
36747;SDS011;22716;51.556;5.080;2023-12-29T03:59:59;14.55;;;2.88;;
36747;SDS011;22716;51.556;5.080;2023-12-29T04:02:28;8.50;;;2.37;;
36747;SDS011;22716;51.556;5.080;2023-12-29T04:04:57;7.57;;;2.38;;
36747;SDS011;22716;51.556;5.080;2023-12-29T04:07:29;8.87;;;2.57;;
36747;SDS011;22716;51.556;5.080;2023-12-29T04:09:57;10.98;;;2.85;;
36747;SDS011;22716;51.556;5.080;2023-12-29T04:12:26;12.77;;;3.13;;
36747;SDS011;22716;51.556;5.080;2023-12-29T04:14:54;12.48;;;2.55;;
36747;SDS011;22716;51.556;5.080;2023-12-29T04:17:23;17.00;;;3.88;;
36747;SDS011;22716;51.556;5.080;2023-12-29T04:19:51;9.18;;;2.55;;
36747;SDS011;22716;51.556;5.080;2023-12-29T04:22:21;17.00;;;4.18;;
36747;SDS011;22716;51.556;5.080;2023-12-29T04:24:52;10.32;;;3.53;;
36747;SDS011;22716;51.556;5.080;2023-12-29T04:27:21;15.18;;;4.25;;
36747;SDS011;22716;51.556;5.080;2023-12-29T04:29:50;8.50;;;2.90;;
36747;SDS011;22716;51.556;5.080;2023-12-29T04:32:18;14.88;;;3.17;;
36747;SDS011;22716;51.556;5.080;2023-12-29T04:34:47;9.07;;;2.65;;
36747;SDS011;22716;51.556;5.080;2023-12-29T04:37:15;19.63;;;3.75;;
36747;SDS011;22716;51.556;5.080;2023-12-29T04:39:44;13.30;;;3.17;;
36747;SDS011;22716;51.556;5.080;2023-12-29T04:42:15;9.93;;;3.00;;
36747;SDS011;22716;51.556;5.080;2023-12-29T04:44:44;10.75;;;3.70;;
36747;SDS011;22716;51.556;5.080;2023-12-29T04:47:12;9.88;;;3.28;;
36747;SDS011;22716;51.556;5.080;2023-12-29T04:49:42;11.05;;;3.05;;
36747;SDS011;22716;51.556;5.080;2023-12-29T04:52:10;24.15;;;3.78;;
36747;SDS011;22716;51.556;5.080;2023-12-29T04:54:39;16.35;;;3.38;;
36747;SDS011;22716;51.556;5.080;2023-12-29T04:57:07;12.83;;;3.27;;
36747;SDS011;22716;51.556;5.080;2023-12-29T04:59:39;15.52;;;2.72;;
36747;SDS011;22716;51.556;5.080;2023-12-29T05:02:08;7.25;;;2.58;;
36747;SDS011;22716;51.556;5.080;2023-12-29T05:04:36;12.10;;;2.30;;
36747;SDS011;22716;51.556;5.080;2023-12-29T05:07:05;9.13;;;2.53;;
36747;SDS011;22716;51.556;5.080;2023-12-29T05:09:37;9.90;;;3.05;;
36747;SDS011;22716;51.556;5.080;2023-12-29T05:12:05;15.43;;;2.57;;
36747;SDS011;22716;51.556;5.080;2023-12-29T05:14:35;14.05;;;2.83;;
36747;SDS011;22716;51.556;5.080;2023-12-29T05:17:06;15.80;;;2.45;;
36747;SDS011;22716;51.556;5.080;2023-12-29T05:19:34;12.05;;;2.45;;
36747;SDS011;22716;51.556;5.080;2023-12-29T05:22:03;8.27;;;2.17;;
36747;SDS011;22716;51.556;5.080;2023-12-29T05:24:32;11.20;;;2.15;;
36747;SDS011;22716;51.556;5.080;2023-12-29T05:27:00;14.02;;;3.42;;
36747;SDS011;22716;51.556;5.080;2023-12-29T05:29:29;12.90;;;2.00;;
36747;SDS011;22716;51.556;5.080;2023-12-29T05:31:57;11.25;;;3.00;;
36747;SDS011;22716;51.556;5.080;2023-12-29T05:34:30;12.40;;;3.28;;
36747;SDS011;22716;51.556;5.080;2023-12-29T05:36:58;9.10;;;2.25;;
36747;SDS011;22716;51.556;5.080;2023-12-29T05:39:27;12.75;;;2.40;;
36747;SDS011;22716;51.556;5.080;2023-12-29T05:41:56;14.20;;;2.65;;
36747;SDS011;22716;51.556;5.080;2023-12-29T05:44:24;15.18;;;2.92;;
36747;SDS011;22716;51.556;5.080;2023-12-29T05:46:53;8.48;;;2.72;;
36747;SDS011;22716;51.556;5.080;2023-12-29T05:49:24;9.18;;;2.92;;
36747;SDS011;22716;51.556;5.080;2023-12-29T05:51:55;13.25;;;2.22;;
36747;SDS011;22716;51.556;5.080;2023-12-29T05:54:24;12.07;;;2.35;;
36747;SDS011;22716;51.556;5.080;2023-12-29T05:56:53;11.30;;;3.28;;
36747;SDS011;22716;51.556;5.080;2023-12-29T05:59:21;7.60;;;3.40;;
36747;SDS011;22716;51.556;5.080;2023-12-29T06:01:50;13.70;;;2.67;;
36747;SDS011;22716;51.556;5.080;2023-12-29T06:04:19;8.75;;;2.13;;
36747;SDS011;22716;51.556;5.080;2023-12-29T06:06:47;14.55;;;3.15;;
36747;SDS011;22716;51.556;5.080;2023-12-29T06:09:19;10.95;;;2.97;;
36747;SDS011;22716;51.556;5.080;2023-12-29T06:11:47;14.40;;;2.42;;
36747;SDS011;22716;51.556;5.080;2023-12-29T06:14:16;7.07;;;2.20;;
36747;SDS011;22716;51.556;5.080;2023-12-29T06:16:45;11.40;;;2.90;;
36747;SDS011;22716;51.556;5.080;2023-12-29T06:19:14;15.13;;;3.47;;
36747;SDS011;22716;51.556;5.080;2023-12-29T06:21:43;10.63;;;2.17;;
36747;SDS011;22716;51.556;5.080;2023-12-29T06:24:12;12.45;;;3.17;;
36747;SDS011;22716;51.556;5.080;2023-12-29T06:26:43;11.75;;;2.65;;
36747;SDS011;22716;51.556;5.080;2023-12-29T06:29:12;9.50;;;3.05;;
36747;SDS011;22716;51.556;5.080;2023-12-29T06:31:41;9.82;;;2.17;;
36747;SDS011;22716;51.556;5.080;2023-12-29T06:34:09;11.90;;;2.47;;
36747;SDS011;22716;51.556;5.080;2023-12-29T06:36:38;8.35;;;2.95;;
36747;SDS011;22716;51.556;5.080;2023-12-29T06:39:07;6.63;;;2.00;;
36747;SDS011;22716;51.556;5.080;2023-12-29T06:41:35;7.72;;;2.83;;
36747;SDS011;22716;51.556;5.080;2023-12-29T06:44:07;7.90;;;1.63;;
36747;SDS011;22716;51.556;5.080;2023-12-29T06:46:36;14.27;;;2.90;;
36747;SDS011;22716;51.556;5.080;2023-12-29T06:49:06;8.32;;;1.83;;
36747;SDS011;22716;51.556;5.080;2023-12-29T06:51:36;7.53;;;1.95;;
36747;SDS011;22716;51.556;5.080;2023-12-29T06:54:06;9.23;;;2.47;;
36747;SDS011;22716;51.556;5.080;2023-12-29T06:56:35;9.18;;;2.53;;
36747;SDS011;22716;51.556;5.080;2023-12-29T06:59:01;8.68;;;2.08;;
36747;SDS011;22716;51.556;5.080;2023-12-29T07:01:32;7.90;;;1.55;;
36747;SDS011;22716;51.556;5.080;2023-12-29T07:04:00;14.02;;;1.90;;
36747;SDS011;22716;51.556;5.080;2023-12-29T07:06:30;9.07;;;2.03;;
36747;SDS011;22716;51.556;5.080;2023-12-29T07:08:59;5.90;;;3.00;;
36747;SDS011;22716;51.556;5.080;2023-12-29T07:11:28;9.10;;;1.77;;
36747;SDS011;22716;51.556;5.080;2023-12-29T07:13:57;6.35;;;2.63;;
36747;SDS011;22716;51.556;5.080;2023-12-29T07:16:26;6.40;;;1.67;;
36747;SDS011;22716;51.556;5.080;2023-12-29T07:18:57;6.57;;;1.55;;
36747;SDS011;22716;51.556;5.080;2023-12-29T07:21:25;5.53;;;1.40;;
36747;SDS011;22716;51.556;5.080;2023-12-29T07:23:54;8.30;;;2.67;;
36747;SDS011;22716;51.556;5.080;2023-12-29T07:26:23;8.48;;;1.52;;
36747;SDS011;22716;51.556;5.080;2023-12-29T07:28:51;7.00;;;1.90;;
36747;SDS011;22716;51.556;5.080;2023-12-29T07:31:20;9.32;;;2.58;;
36747;SDS011;22716;51.556;5.080;2023-12-29T07:33:49;6.07;;;1.52;;
36747;SDS011;22716;51.556;5.080;2023-12-29T07:36:20;10.75;;;2.25;;
36747;SDS011;22716;51.556;5.080;2023-12-29T07:38:49;12.30;;;2.90;;
36747;SDS011;22716;51.556;5.080;2023-12-29T07:41:18;7.88;;;2.33;;
36747;SDS011;22716;51.556;5.080;2023-12-29T07:43:46;8.70;;;2.05;;
36747;SDS011;22716;51.556;5.080;2023-12-29T07:46:23;6.43;;;2.65;;
36747;SDS011;22716;51.556;5.080;2023-12-29T07:48:52;13.55;;;3.45;;
36747;SDS011;22716;51.556;5.080;2023-12-29T07:51:23;4.80;;;1.50;;
36747;SDS011;22716;51.556;5.080;2023-12-29T07:53:52;5.22;;;1.92;;
36747;SDS011;22716;51.556;5.080;2023-12-29T07:56:21;5.72;;;1.50;;
36747;SDS011;22716;51.556;5.080;2023-12-29T07:58:49;8.32;;;1.58;;
36747;SDS011;22716;51.556;5.080;2023-12-29T08:01:18;3.10;;;1.50;;
36747;SDS011;22716;51.556;5.080;2023-12-29T08:03:47;5.57;;;1.63;;
36747;SDS011;22716;51.556;5.080;2023-12-29T08:06:16;6.07;;;2.33;;
36747;SDS011;22716;51.556;5.080;2023-12-29T08:08:47;5.55;;;1.70;;
36747;SDS011;22716;51.556;5.080;2023-12-29T08:11:15;5.75;;;1.80;;
36747;SDS011;22716;51.556;5.080;2023-12-29T08:13:46;6.03;;;2.08;;
36747;SDS011;22716;51.556;5.080;2023-12-29T08:16:16;5.53;;;1.65;;
36747;SDS011;22716;51.556;5.080;2023-12-29T08:18:45;7.85;;;1.73;;
36747;SDS011;22716;51.556;5.080;2023-12-29T08:21:17;2.88;;;1.35;;
36747;SDS011;22716;51.556;5.080;2023-12-29T08:23:49;6.32;;;1.80;;
36747;SDS011;22716;51.556;5.080;2023-12-29T08:26:18;6.47;;;1.58;;
36747;SDS011;22716;51.556;5.080;2023-12-29T08:28:46;7.75;;;1.70;;
36747;SDS011;22716;51.556;5.080;2023-12-29T08:31:15;6.72;;;1.42;;
36747;SDS011;22716;51.556;5.080;2023-12-29T08:33:44;7.80;;;1.20;;
36747;SDS011;22716;51.556;5.080;2023-12-29T08:36:13;6.18;;;1.05;;
36747;SDS011;22716;51.556;5.080;2023-12-29T08:38:41;5.30;;;1.85;;
36747;SDS011;22716;51.556;5.080;2023-12-29T08:41:13;5.43;;;1.33;;
36747;SDS011;22716;51.556;5.080;2023-12-29T08:43:43;3.20;;;1.48;;
36747;SDS011;22716;51.556;5.080;2023-12-29T08:46:12;4.95;;;1.27;;
36747;SDS011;22716;51.556;5.080;2023-12-29T08:48:41;2.95;;;1.33;;
36747;SDS011;22716;51.556;5.080;2023-12-29T08:51:09;3.75;;;1.92;;
36747;SDS011;22716;51.556;5.080;2023-12-29T08:53:38;2.75;;;0.88;;
36747;SDS011;22716;51.556;5.080;2023-12-29T08:56:06;2.65;;;1.23;;
36747;SDS011;22716;51.556;5.080;2023-12-29T08:58:37;2.67;;;1.40;;
36747;SDS011;22716;51.556;5.080;2023-12-29T09:01:07;3.20;;;0.70;;
36747;SDS011;22716;51.556;5.080;2023-12-29T09:03:35;4.95;;;1.20;;
36747;SDS011;22716;51.556;5.080;2023-12-29T09:06:04;2.72;;;1.38;;
36747;SDS011;22716;51.556;5.080;2023-12-29T09:08:34;4.45;;;1.08;;
36747;SDS011;22716;51.556;5.080;2023-12-29T09:11:03;2.25;;;1.20;;
36747;SDS011;22716;51.556;5.080;2023-12-29T09:13:32;2.90;;;0.85;;
36747;SDS011;22716;51.556;5.080;2023-12-29T09:16:04;3.42;;;1.30;;
36747;SDS011;22716;51.556;5.080;2023-12-29T09:18:33;2.53;;;1.40;;
36747;SDS011;22716;51.556;5.080;2023-12-29T09:21:02;1.10;;;0.90;;
36747;SDS011;22716;51.556;5.080;2023-12-29T09:23:30;2.33;;;1.10;;
36747;SDS011;22716;51.556;5.080;2023-12-29T09:25:59;4.63;;;0.90;;
36747;SDS011;22716;51.556;5.080;2023-12-29T09:28:28;2.63;;;1.85;;
36747;SDS011;22716;51.556;5.080;2023-12-29T09:30:56;2.15;;;1.13;;
36747;SDS011;22716;51.556;5.080;2023-12-29T09:33:28;5.20;;;0.73;;
36747;SDS011;22716;51.556;5.080;2023-12-29T09:35:56;2.90;;;0.80;;
36747;SDS011;22716;51.556;5.080;2023-12-29T09:38:25;3.08;;;0.77;;
36747;SDS011;22716;51.556;5.080;2023-12-29T09:40:54;1.75;;;0.75;;
36747;SDS011;22716;51.556;5.080;2023-12-29T09:43:27;3.17;;;1.05;;
36747;SDS011;22716;51.556;5.080;2023-12-29T09:45:57;1.65;;;1.20;;
36747;SDS011;22716;51.556;5.080;2023-12-29T09:48:30;1.90;;;1.00;;
36747;SDS011;22716;51.556;5.080;2023-12-29T09:51:01;5.22;;;1.33;;
36747;SDS011;22716;51.556;5.080;2023-12-29T09:53:30;3.50;;;0.95;;
36747;SDS011;22716;51.556;5.080;2023-12-29T09:55:59;4.57;;;1.30;;
36747;SDS011;22716;51.556;5.080;2023-12-29T09:58:29;3.63;;;1.17;;
36747;SDS011;22716;51.556;5.080;2023-12-29T10:00:59;2.08;;;0.75;;
36747;SDS011;22716;51.556;5.080;2023-12-29T10:03:34;2.97;;;0.63;;
36747;SDS011;22716;51.556;5.080;2023-12-29T10:06:03;1.38;;;0.80;;
36747;SDS011;22716;51.556;5.080;2023-12-29T10:08:36;0.40;;;0.40;;
36747;SDS011;22716;51.556;5.080;2023-12-29T10:11:05;1.02;;;0.50;;
36747;SDS011;22716;51.556;5.080;2023-12-29T10:13:36;1.33;;;0.90;;
36747;SDS011;22716;51.556;5.080;2023-12-29T10:16:07;3.70;;;0.87;;
36747;SDS011;22716;51.556;5.080;2023-12-29T10:18:48;2.42;;;0.57;;
36747;SDS011;22716;51.556;5.080;2023-12-29T10:21:29;2.17;;;0.80;;
36747;SDS011;22716;51.556;5.080;2023-12-29T10:24:05;3.90;;;1.38;;
36747;SDS011;22716;51.556;5.080;2023-12-29T10:26:40;2.80;;;1.05;;
36747;SDS011;22716;51.556;5.080;2023-12-29T10:29:09;2.38;;;0.80;;
36747;SDS011;22716;51.556;5.080;2023-12-29T10:31:40;1.48;;;0.70;;
36747;SDS011;22716;51.556;5.080;2023-12-29T10:34:20;3.10;;;1.20;;
36747;SDS011;22716;51.556;5.080;2023-12-29T10:36:54;2.45;;;1.40;;
36747;SDS011;22716;51.556;5.080;2023-12-29T10:39:22;4.13;;;1.07;;
36747;SDS011;22716;51.556;5.080;2023-12-29T10:42:02;3.28;;;0.90;;
36747;SDS011;22716;51.556;5.080;2023-12-29T10:44:32;4.22;;;1.30;;
36747;SDS011;22716;51.556;5.080;2023-12-29T10:47:07;3.40;;;0.93;;
36747;SDS011;22716;51.556;5.080;2023-12-29T10:49:40;5.32;;;1.13;;
36747;SDS011;22716;51.556;5.080;2023-12-29T10:52:12;5.20;;;0.93;;
36747;SDS011;22716;51.556;5.080;2023-12-29T10:54:41;6.03;;;0.90;;
36747;SDS011;22716;51.556;5.080;2023-12-29T10:57:11;9.82;;;2.42;;
36747;SDS011;22716;51.556;5.080;2023-12-29T10:59:40;5.30;;;2.17;;
36747;SDS011;22716;51.556;5.080;2023-12-29T11:02:11;5.38;;;1.40;;
36747;SDS011;22716;51.556;5.080;2023-12-29T11:07:16;6.85;;;1.92;;
36747;SDS011;22716;51.556;5.080;2023-12-29T11:10:00;4.72;;;1.40;;
36747;SDS011;22716;51.556;5.080;2023-12-29T11:12:32;3.65;;;1.77;;
36747;SDS011;22716;51.556;5.080;2023-12-29T11:15:22;4.30;;;3.00;;
36747;SDS011;22716;51.556;5.080;2023-12-29T11:18:14;9.63;;;2.30;;
36747;SDS011;22716;51.556;5.080;2023-12-29T11:21:08;3.88;;;1.92;;
36747;SDS011;22716;51.556;5.080;2023-12-29T11:23:58;5.35;;;1.65;;
36747;SDS011;22716;51.556;5.080;2023-12-29T11:26:48;8.38;;;1.80;;
36747;SDS011;22716;51.556;5.080;2023-12-29T11:29:38;7.85;;;2.05;;
36747;SDS011;22716;51.556;5.080;2023-12-29T11:32:32;5.97;;;2.67;;
36747;SDS011;22716;51.556;5.080;2023-12-29T11:35:30;5.70;;;2.40;;
36747;SDS011;22716;51.556;5.080;2023-12-29T11:38:33;7.80;;;2.80;;
36747;SDS011;22716;51.556;5.080;2023-12-29T11:41:33;8.57;;;2.88;;
36747;SDS011;22716;51.556;5.080;2023-12-29T11:44:29;7.28;;;2.95;;
36747;SDS011;22716;51.556;5.080;2023-12-29T11:47:35;6.28;;;2.30;;
36747;SDS011;22716;51.556;5.080;2023-12-29T11:53:30;8.02;;;1.20;;
36747;SDS011;22716;51.556;5.080;2023-12-29T11:56:23;3.30;;;1.30;;
36747;SDS011;22716;51.556;5.080;2023-12-29T11:59:11;2.25;;;0.90;;
36747;SDS011;22716;51.556;5.080;2023-12-29T12:01:42;1.20;;;0.70;;
36747;SDS011;22716;51.556;5.080;2023-12-29T12:07:02;3.15;;;1.10;;
36747;SDS011;22716;51.556;5.080;2023-12-29T12:09:35;1.70;;;0.73;;
36747;SDS011;22716;51.556;5.080;2023-12-29T12:12:38;2.78;;;1.30;;
36747;SDS011;22716;51.556;5.080;2023-12-29T12:15:31;2.17;;;0.93;;
36747;SDS011;22716;51.556;5.080;2023-12-29T12:18:22;2.85;;;0.90;;
36747;SDS011;22716;51.556;5.080;2023-12-29T12:21:12;2.60;;;1.42;;
36747;SDS011;22716;51.556;5.080;2023-12-29T12:24:01;1.60;;;1.50;;
36747;SDS011;22716;51.556;5.080;2023-12-29T12:26:55;3.53;;;1.40;;
36747;SDS011;22716;51.556;5.080;2023-12-29T12:29:45;6.00;;;1.33;;
36747;SDS011;22716;51.556;5.080;2023-12-29T12:32:34;2.72;;;1.33;;
36747;SDS011;22716;51.556;5.080;2023-12-29T12:35:24;2.42;;;1.50;;
36747;SDS011;22716;51.556;5.080;2023-12-29T12:38:15;4.30;;;2.00;;
36747;SDS011;22716;51.556;5.080;2023-12-29T12:41:11;2.55;;;1.85;;
36747;SDS011;22716;51.556;5.080;2023-12-29T12:44:04;4.87;;;1.93;;
36747;SDS011;22716;51.556;5.080;2023-12-29T12:46:58;1.98;;;1.48;;
36747;SDS011;22716;51.556;5.080;2023-12-29T12:49:49;5.50;;;1.83;;
36747;SDS011;22716;51.556;5.080;2023-12-29T12:52:39;4.97;;;2.33;;
36747;SDS011;22716;51.556;5.080;2023-12-29T12:55:29;5.37;;;2.10;;
36747;SDS011;22716;51.556;5.080;2023-12-29T12:58:21;2.40;;;2.20;;
36747;SDS011;22716;51.556;5.080;2023-12-29T13:01:15;5.15;;;2.80;;
36747;SDS011;22716;51.556;5.080;2023-12-29T13:04:04;5.25;;;2.78;;
36747;SDS011;22716;51.556;5.080;2023-12-29T13:06:54;6.28;;;3.38;;
36747;SDS011;22716;51.556;5.080;2023-12-29T13:09:44;4.20;;;2.60;;
36747;SDS011;22716;51.556;5.080;2023-12-29T13:12:35;5.57;;;2.28;;
36747;SDS011;22716;51.556;5.080;2023-12-29T13:15:24;7.70;;;3.88;;
36747;SDS011;22716;51.556;5.080;2023-12-29T13:18:26;7.97;;;2.92;;
36747;SDS011;22716;51.556;5.080;2023-12-29T13:21:18;4.95;;;2.70;;
36747;SDS011;22716;51.556;5.080;2023-12-29T13:23:47;9.43;;;2.92;;
36747;SDS011;22716;51.556;5.080;2023-12-29T13:26:16;8.82;;;2.88;;
36747;SDS011;22716;51.556;5.080;2023-12-29T13:28:47;9.45;;;4.22;;
36747;SDS011;22716;51.556;5.080;2023-12-29T13:31:16;4.75;;;4.25;;
36747;SDS011;22716;51.556;5.080;2023-12-29T13:33:49;5.50;;;3.53;;
36747;SDS011;22716;51.556;5.080;2023-12-29T13:36:26;7.18;;;3.70;;
36747;SDS011;22716;51.556;5.080;2023-12-29T13:39:06;5.13;;;3.03;;
36747;SDS011;22716;51.556;5.080;2023-12-29T13:41:37;6.63;;;3.73;;
36747;SDS011;22716;51.556;5.080;2023-12-29T13:44:07;6.82;;;2.92;;
36747;SDS011;22716;51.556;5.080;2023-12-29T13:46:36;7.13;;;2.40;;
36747;SDS011;22716;51.556;5.080;2023-12-29T13:49:08;4.82;;;2.97;;
36747;SDS011;22716;51.556;5.080;2023-12-29T13:51:37;6.72;;;2.53;;
36747;SDS011;22716;51.556;5.080;2023-12-29T13:54:06;6.18;;;3.05;;
36747;SDS011;22716;51.556;5.080;2023-12-29T13:56:53;2.92;;;1.40;;
36747;SDS011;22716;51.556;5.080;2023-12-29T13:59:43;6.27;;;2.10;;
36747;SDS011;22716;51.556;5.080;2023-12-29T14:02:32;4.97;;;1.27;;
36747;SDS011;22716;51.556;5.080;2023-12-29T14:05:27;5.72;;;2.00;;
36747;SDS011;22716;51.556;5.080;2023-12-29T14:08:23;2.30;;;1.30;;
36747;SDS011;22716;51.556;5.080;2023-12-29T14:11:13;2.65;;;1.50;;
36747;SDS011;22716;51.556;5.080;2023-12-29T14:14:03;5.13;;;1.63;;
36747;SDS011;22716;51.556;5.080;2023-12-29T14:16:52;4.13;;;1.50;;
36747;SDS011;22716;51.556;5.080;2023-12-29T14:19:42;6.88;;;1.52;;
36747;SDS011;22716;51.556;5.080;2023-12-29T14:22:35;6.63;;;2.80;;
36747;SDS011;22716;51.556;5.080;2023-12-29T14:25:24;6.05;;;1.77;;
36747;SDS011;22716;51.556;5.080;2023-12-29T14:28:16;1.83;;;1.23;;
36747;SDS011;22716;51.556;5.080;2023-12-29T14:31:07;4.17;;;1.80;;
36747;SDS011;22716;51.556;5.080;2023-12-29T14:33:57;4.53;;;1.30;;
36747;SDS011;22716;51.556;5.080;2023-12-29T14:36:47;5.55;;;1.30;;
36747;SDS011;22716;51.556;5.080;2023-12-29T14:39:39;2.50;;;1.43;;
36747;SDS011;22716;51.556;5.080;2023-12-29T14:42:28;5.95;;;1.45;;
36747;SDS011;22716;51.556;5.080;2023-12-29T14:45:19;3.30;;;1.00;;
36747;SDS011;22716;51.556;5.080;2023-12-29T14:48:08;4.65;;;1.58;;
36747;SDS011;22716;51.556;5.080;2023-12-29T14:50:59;3.88;;;1.98;;
36747;SDS011;22716;51.556;5.080;2023-12-29T14:53:50;7.30;;;2.97;;
36747;SDS011;22716;51.556;5.080;2023-12-29T14:56:42;3.73;;;1.30;;
36747;SDS011;22716;51.556;5.080;2023-12-29T14:59:31;3.38;;;1.33;;
36747;SDS011;22716;51.556;5.080;2023-12-29T15:02:22;4.40;;;1.27;;
36747;SDS011;22716;51.556;5.080;2023-12-29T15:05:12;2.25;;;1.10;;
36747;SDS011;22716;51.556;5.080;2023-12-29T15:08:01;2.90;;;1.05;;
36747;SDS011;22716;51.556;5.080;2023-12-29T15:10:51;2.67;;;1.47;;
36747;SDS011;22716;51.556;5.080;2023-12-29T15:13:22;3.05;;;1.45;;
36747;SDS011;22716;51.556;5.080;2023-12-29T15:15:52;3.20;;;1.77;;
36747;SDS011;22716;51.556;5.080;2023-12-29T15:18:21;5.25;;;1.38;;
36747;SDS011;22716;51.556;5.080;2023-12-29T15:20:49;4.45;;;1.30;;
36747;SDS011;22716;51.556;5.080;2023-12-29T15:23:18;6.32;;;2.92;;
36747;SDS011;22716;51.556;5.080;2023-12-29T15:25:48;8.02;;;1.58;;
36747;SDS011;22716;51.556;5.080;2023-12-29T15:28:18;5.43;;;1.95;;
36747;SDS011;22716;51.556;5.080;2023-12-29T15:30:50;4.07;;;1.60;;